sensor_id;sensor_type;location;lat;lon;timestamp;pressure;altitude;pressure_sealevel;temperature;humidity
62201;BME280;48197;42.732;27.192;2023-02-22T10:09:02;99537.25;;;18.87;35.29
62201;BME280;48197;42.732;27.192;2023-02-22T10:11:49;99535.38;;;18.84;35.54
62201;BME280;48197;42.732;27.192;2023-02-22T10:17:32;99539.28;;;18.87;36.18
62201;BME280;48197;42.732;27.192;2023-02-22T10:28:53;99524.75;;;19.34;34.53
62201;BME280;48197;42.732;27.192;2023-02-22T10:50:28;99497.56;;;19.07;34.72
62201;BME280;48197;42.732;27.192;2023-02-22T10:52:56;99503.56;;;19.43;34.31
62201;BME280;48197;42.732;27.192;2023-02-22T10:55:22;99493.69;;;18.95;34.46
62201;BME280;48197;42.732;27.192;2023-02-22T10:57:50;99501.00;;;18.15;36.27
62201;BME280;48197;42.732;27.192;2023-02-22T11:03:21;99501.00;;;18.06;36.24
62201;BME280;48197;42.732;27.192;2023-02-22T11:05:49;99493.69;;;18.00;36.69
62201;BME280;48197;42.732;27.192;2023-02-22T11:08:34;99493.41;;;17.75;36.54
62201;BME280;48197;42.732;27.192;2023-02-22T11:11:01;99476.09;;;17.90;37.07
62201;BME280;48197;42.732;27.192;2023-02-22T11:13:32;99479.13;;;18.14;36.13
62201;BME280;48197;42.732;27.192;2023-02-22T11:16:00;99497.59;;;18.11;36.33
62201;BME280;48197;42.732;27.192;2023-02-22T11:18:29;99488.97;;;18.55;36.16
62201;BME280;48197;42.732;27.192;2023-02-22T11:24:12;99483.38;;;19.29;35.05
62201;BME280;48197;42.732;27.192;2023-02-22T11:27:11;99484.53;;;19.56;34.16
62201;BME280;48197;42.732;27.192;2023-02-22T11:29:35;99479.44;;;19.45;33.74
62201;BME280;48197;42.732;27.192;2023-02-22T11:32:21;99483.97;;;19.43;34.13
62201;BME280;48197;42.732;27.192;2023-02-22T11:34:49;99480.91;;;19.65;33.67
62201;BME280;48197;42.732;27.192;2023-02-22T11:43:26;99472.69;;;19.61;33.87
62201;BME280;48197;42.732;27.192;2023-02-22T11:49:16;99488.06;;;19.75;33.57
62201;BME280;48197;42.732;27.192;2023-02-22T11:54:18;99474.91;;;19.48;33.65
62201;BME280;48197;42.732;27.192;2023-02-22T12:08:56;99454.59;;;19.71;33.72
62201;BME280;48197;42.732;27.192;2023-02-22T12:20:01;99456.38;;;20.41;32.52
62201;BME280;48197;42.732;27.192;2023-02-22T12:25:40;99457.94;;;20.18;32.71
62201;BME280;48197;42.732;27.192;2023-02-22T12:28:54;99453.03;;;20.52;32.11
62201;BME280;48197;42.732;27.192;2023-02-22T12:31:27;99461.28;;;20.55;32.28
62201;BME280;48197;42.732;27.192;2023-02-22T12:40:29;99456.03;;;20.72;32.38
62201;BME280;48197;42.732;27.192;2023-02-22T12:46:30;99458.59;;;20.61;32.47
62201;BME280;48197;42.732;27.192;2023-02-22T12:49:02;99446.63;;;20.75;31.98
62201;BME280;48197;42.732;27.192;2023-02-22T12:51:40;99435.69;;;20.77;31.86
62201;BME280;48197;42.732;27.192;2023-02-22T12:54:10;99449.91;;;20.59;31.73
62201;BME280;48197;42.732;27.192;2023-02-22T12:56:40;99450.91;;;20.47;31.92
62201;BME280;48197;42.732;27.192;2023-02-22T12:59:43;99452.56;;;20.53;31.86
62201;BME280;48197;42.732;27.192;2023-02-22T13:05:17;99449.75;;;20.53;32.63
62201;BME280;48197;42.732;27.192;2023-02-22T14:25:34;99498.72;;;18.23;38.81
62201;BME280;48197;42.732;27.192;2023-02-22T14:31:07;99521.38;;;16.52;42.90
62201;BME280;48197;42.732;27.192;2023-02-22T14:36:25;99520.66;;;15.75;45.68
62201;BME280;48197;42.732;27.192;2023-02-22T14:38:53;99523.94;;;15.57;46.15
62201;BME280;48197;42.732;27.192;2023-02-22T14:41:24;99527.97;;;15.56;46.35
62201;BME280;48197;42.732;27.192;2023-02-22T14:43:53;99525.69;;;15.38;47.16
62201;BME280;48197;42.732;27.192;2023-02-22T14:46:22;99524.31;;;15.17;48.06
62201;BME280;48197;42.732;27.192;2023-02-22T14:48:50;99539.19;;;15.10;48.27
62201;BME280;48197;42.732;27.192;2023-02-22T14:51:26;99533.56;;;14.98;48.61
62201;BME280;48197;42.732;27.192;2023-02-22T14:54:02;99539.97;;;14.82;48.74
62201;BME280;48197;42.732;27.192;2023-02-22T14:56:34;99548.53;;;14.58;49.56
62201;BME280;48197;42.732;27.192;2023-02-22T15:01:37;99546.78;;;14.64;49.96
62201;BME280;48197;42.732;27.192;2023-02-22T15:04:17;99539.09;;;15.14;48.85
62201;BME280;48197;42.732;27.192;2023-02-22T15:06:44;99542.22;;;15.58;47.74
62201;BME280;48197;42.732;27.192;2023-02-22T15:11:39;99547.97;;;15.93;46.97
62201;BME280;48197;42.732;27.192;2023-02-22T15:14:14;99554.78;;;15.92;47.00
62201;BME280;48197;42.732;27.192;2023-02-22T15:16:45;99550.31;;;15.95;46.87
62201;BME280;48197;42.732;27.192;2023-02-22T15:19:20;99567.09;;;15.65;47.34
62201;BME280;48197;42.732;27.192;2023-02-22T15:21:51;99565.78;;;14.99;48.89
62201;BME280;48197;42.732;27.192;2023-02-22T15:24:20;99571.34;;;14.33;50.56
62201;BME280;48197;42.732;27.192;2023-02-22T15:26:47;99570.00;;;13.88;51.76
62201;BME280;48197;42.732;27.192;2023-02-22T15:29:15;99570.63;;;13.60;52.67
62201;BME280;48197;42.732;27.192;2023-02-22T15:31:43;99578.25;;;13.36;54.00
62201;BME280;48197;42.732;27.192;2023-02-22T15:36:41;99585.19;;;12.80;56.31
62201;BME280;48197;42.732;27.192;2023-02-22T15:39:27;99581.63;;;12.56;57.05
62201;BME280;48197;42.732;27.192;2023-02-22T15:42:05;99586.59;;;12.41;57.50
62201;BME280;48197;42.732;27.192;2023-02-22T15:44:37;99594.31;;;12.30;57.78
62201;BME280;48197;42.732;27.192;2023-02-22T15:47:05;99595.38;;;12.13;58.29
62201;BME280;48197;42.732;27.192;2023-02-22T15:49:32;99600.44;;;11.91;58.92
62201;BME280;48197;42.732;27.192;2023-02-22T15:52:01;99605.03;;;11.67;59.35
62201;BME280;48197;42.732;27.192;2023-02-22T15:54:29;99604.94;;;11.43;59.88
62201;BME280;48197;42.732;27.192;2023-02-22T15:57:02;99611.91;;;11.20;60.41
62201;BME280;48197;42.732;27.192;2023-02-22T15:59:29;99614.16;;;10.95;61.41
62201;BME280;48197;42.732;27.192;2023-02-22T16:01:58;99618.69;;;10.71;64.66
62201;BME280;48197;42.732;27.192;2023-02-22T16:04:26;99636.66;;;10.48;67.42
62201;BME280;48197;42.732;27.192;2023-02-22T16:07:01;99636.66;;;10.45;67.47
62201;BME280;48197;42.732;27.192;2023-02-22T16:09:28;99636.75;;;10.30;67.89
62201;BME280;48197;42.732;27.192;2023-02-22T16:12:08;99641.59;;;10.12;68.57
62201;BME280;48197;42.732;27.192;2023-02-22T16:19:50;99659.91;;;9.70;72.34
62201;BME280;48197;42.732;27.192;2023-02-22T16:22:32;99675.34;;;9.56;75.47
62201;BME280;48197;42.732;27.192;2023-02-22T16:27:43;99689.16;;;9.42;79.87
62201;BME280;48197;42.732;27.192;2023-02-22T16:32:46;99702.59;;;9.22;83.10
62201;BME280;48197;42.732;27.192;2023-02-22T16:35:13;99704.56;;;9.14;83.50
62201;BME280;48197;42.732;27.192;2023-02-22T16:37:55;99721.13;;;9.07;85.19
62201;BME280;48197;42.732;27.192;2023-02-22T16:40:23;99725.03;;;8.88;86.29
62201;BME280;48197;42.732;27.192;2023-02-22T16:42:50;99729.75;;;8.70;87.04
62201;BME280;48197;42.732;27.192;2023-02-22T16:45:17;99730.09;;;8.47;88.89
62201;BME280;48197;42.732;27.192;2023-02-22T16:47:44;99735.13;;;8.30;89.70
62201;BME280;48197;42.732;27.192;2023-02-22T16:50:10;99748.84;;;8.16;91.94
62201;BME280;48197;42.732;27.192;2023-02-22T16:52:40;99749.19;;;8.00;92.78
62201;BME280;48197;42.732;27.192;2023-02-22T16:55:11;99740.41;;;7.80;93.35
62201;BME280;48197;42.732;27.192;2023-02-22T16:57:38;99748.66;;;7.73;97.00
62201;BME280;48197;42.732;27.192;2023-02-22T17:00:07;99756.13;;;7.72;95.85
62201;BME280;48197;42.732;27.192;2023-02-22T17:02:38;99748.22;;;7.67;95.90
62201;BME280;48197;42.732;27.192;2023-02-22T17:05:05;99760.38;;;7.63;95.60
62201;BME280;48197;42.732;27.192;2023-02-22T17:07:33;99763.47;;;7.54;95.76
62201;BME280;48197;42.732;27.192;2023-02-22T17:09:59;99766.91;;;7.44;95.96
62201;BME280;48197;42.732;27.192;2023-02-22T17:24:36;99790.88;;;6.58;98.83
62201;BME280;48197;42.732;27.192;2023-02-22T17:27:04;99787.63;;;6.48;99.63
62201;BME280;48197;42.732;27.192;2023-02-22T17:29:30;99794.75;;;6.53;100.00
62201;BME280;48197;42.732;27.192;2023-02-22T17:31:57;99803.81;;;6.57;98.97
62201;BME280;48197;42.732;27.192;2023-02-22T17:34:23;99803.91;;;6.64;97.08
62201;BME280;48197;42.732;27.192;2023-02-22T17:36:50;99798.81;;;6.66;92.20
62201;BME280;48197;42.732;27.192;2023-02-22T17:39:16;99800.66;;;6.92;84.18
62201;BME280;48197;42.732;27.192;2023-02-22T17:41:43;99805.09;;;7.04;79.64
62201;BME280;48197;42.732;27.192;2023-02-22T17:44:09;99812.16;;;7.05;76.95
62201;BME280;48197;42.732;27.192;2023-02-22T17:46:36;99803.44;;;6.96;75.75
62201;BME280;48197;42.732;27.192;2023-02-22T17:49:05;99799.41;;;6.86;75.37
62201;BME280;48197;42.732;27.192;2023-02-22T17:51:32;99797.69;;;6.71;75.44
62201;BME280;48197;42.732;27.192;2023-02-22T17:53:59;99802.78;;;6.69;74.48
62201;BME280;48197;42.732;27.192;2023-02-22T17:56:26;99804.34;;;6.70;73.23
62201;BME280;48197;42.732;27.192;2023-02-22T17:58:53;99801.56;;;6.66;72.83
62201;BME280;48197;42.732;27.192;2023-02-22T18:03:50;99800.78;;;6.66;71.70
62201;BME280;48197;42.732;27.192;2023-02-22T18:06:17;99789.91;;;6.77;70.63
62201;BME280;48197;42.732;27.192;2023-02-22T18:08:45;99795.41;;;6.77;69.97
62201;BME280;48197;42.732;27.192;2023-02-22T18:11:18;99797.84;;;6.85;69.39
62201;BME280;48197;42.732;27.192;2023-02-22T18:13:45;99798.63;;;6.86;68.42
62201;BME280;48197;42.732;27.192;2023-02-22T18:16:12;99800.53;;;6.82;69.09
62201;BME280;48197;42.732;27.192;2023-02-22T18:18:41;99794.59;;;6.76;69.02
62201;BME280;48197;42.732;27.192;2023-02-22T18:21:08;99801.31;;;6.79;68.95
62201;BME280;48197;42.732;27.192;2023-02-22T18:23:34;99789.88;;;6.73;68.96
62201;BME280;48197;42.732;27.192;2023-02-22T18:26:01;99782.78;;;6.72;68.90
62201;BME280;48197;42.732;27.192;2023-02-22T18:28:29;99793.03;;;6.75;69.13
62201;BME280;48197;42.732;27.192;2023-02-22T18:43:07;99803.22;;;6.74;68.89
62201;BME280;48197;42.732;27.192;2023-02-22T18:45:34;99809.97;;;6.81;68.84
62201;BME280;48197;42.732;27.192;2023-02-22T18:48:01;99801.31;;;6.79;68.57
62201;BME280;48197;42.732;27.192;2023-02-22T18:50:27;99802.41;;;6.70;69.23
62201;BME280;48197;42.732;27.192;2023-02-22T18:52:54;99803.47;;;6.62;69.71
62201;BME280;48197;42.732;27.192;2023-02-22T18:55:20;99797.94;;;6.59;69.94
62201;BME280;48197;42.732;27.192;2023-02-22T18:57:47;99801.78;;;6.50;70.33
62201;BME280;48197;42.732;27.192;2023-02-22T19:00:17;99797.19;;;6.28;71.83
62201;BME280;48197;42.732;27.192;2023-02-22T19:02:43;99801.16;;;6.30;72.53
62201;BME280;48197;42.732;27.192;2023-02-22T19:05:10;99802.31;;;6.29;72.39
62201;BME280;48197;42.732;27.192;2023-02-22T19:07:37;99817.06;;;6.18;72.70
62201;BME280;48197;42.732;27.192;2023-02-22T19:10:05;99810.41;;;6.19;73.49
62201;BME280;48197;42.732;27.192;2023-02-22T19:12:32;99813.97;;;6.23;73.10
62201;BME280;48197;42.732;27.192;2023-02-22T19:14:59;99810.56;;;6.29;73.08
62201;BME280;48197;42.732;27.192;2023-02-22T19:17:26;99810.81;;;6.51;72.22
62201;BME280;48197;42.732;27.192;2023-02-22T19:19:53;99820.19;;;6.84;70.08
62201;BME280;48197;42.732;27.192;2023-02-22T19:22:19;99816.41;;;6.99;69.30
62201;BME280;48197;42.732;27.192;2023-02-22T19:24:46;99820.41;;;7.05;68.99
62201;BME280;48197;42.732;27.192;2023-02-22T19:27:13;99829.84;;;7.08;68.68
62201;BME280;48197;42.732;27.192;2023-02-22T19:29:39;99822.78;;;7.07;68.26
62201;BME280;48197;42.732;27.192;2023-02-22T19:32:06;99830.63;;;7.05;67.69
62201;BME280;48197;42.732;27.192;2023-02-22T19:34:33;99825.75;;;6.91;68.93
62201;BME280;48197;42.732;27.192;2023-02-22T19:37:02;99828.44;;;6.84;68.56
62201;BME280;48197;42.732;27.192;2023-02-22T19:39:30;99830.34;;;6.80;69.23
62201;BME280;48197;42.732;27.192;2023-02-22T19:41:57;99838.59;;;6.80;69.21
62201;BME280;48197;42.732;27.192;2023-02-22T19:44:23;99830.81;;;6.85;68.53
62201;BME280;48197;42.732;27.192;2023-02-22T19:46:51;99837.75;;;6.75;69.04
62201;BME280;48197;42.732;27.192;2023-02-22T19:49:21;99831.41;;;6.68;68.99
62201;BME280;48197;42.732;27.192;2023-02-22T19:51:47;99831.38;;;6.64;69.25
62201;BME280;48197;42.732;27.192;2023-02-22T19:54:14;99826.81;;;6.45;69.61
62201;BME280;48197;42.732;27.192;2023-02-22T19:56:44;99832.97;;;6.35;70.57
62201;BME280;48197;42.732;27.192;2023-02-22T19:59:15;99837.03;;;6.45;70.59
62201;BME280;48197;42.732;27.192;2023-02-22T20:01:46;99835.78;;;6.39;71.03
62201;BME280;48197;42.732;27.192;2023-02-22T20:04:14;99831.44;;;6.38;71.67
62201;BME280;48197;42.732;27.192;2023-02-22T20:06:46;99835.63;;;6.28;72.34
62201;BME280;48197;42.732;27.192;2023-02-22T20:09:14;99830.88;;;6.25;72.93
62201;BME280;48197;42.732;27.192;2023-02-22T20:11:43;99832.19;;;6.34;72.85
62201;BME280;48197;42.732;27.192;2023-02-22T20:14:14;99844.72;;;6.36;72.65
62201;BME280;48197;42.732;27.192;2023-02-22T20:16:42;99839.63;;;6.34;72.41
62201;BME280;48197;42.732;27.192;2023-02-22T20:19:09;99837.47;;;6.20;72.32
62201;BME280;48197;42.732;27.192;2023-02-22T20:21:35;99836.19;;;6.10;73.08
62201;BME280;48197;42.732;27.192;2023-02-22T20:24:03;99837.34;;;6.09;73.38
62201;BME280;48197;42.732;27.192;2023-02-22T20:26:33;99839.59;;;6.04;73.68
62201;BME280;48197;42.732;27.192;2023-02-22T20:29:00;99839.50;;;5.97;74.52
62201;BME280;48197;42.732;27.192;2023-02-22T20:31:29;99840.41;;;6.04;74.58
62201;BME280;48197;42.732;27.192;2023-02-22T20:33:57;99838.94;;;6.10;74.17
62201;BME280;48197;42.732;27.192;2023-02-22T20:36:24;99843.66;;;6.13;73.92
62201;BME280;48197;42.732;27.192;2023-02-22T20:38:54;99838.25;;;6.21;73.92
62201;BME280;48197;42.732;27.192;2023-02-22T20:41:24;99837.47;;;6.20;73.39
62201;BME280;48197;42.732;27.192;2023-02-22T20:43:52;99837.19;;;6.29;73.10
62201;BME280;48197;42.732;27.192;2023-02-22T20:46:19;99835.50;;;6.17;73.65
62201;BME280;48197;42.732;27.192;2023-02-22T20:48:46;99838.97;;;6.14;74.31
62201;BME280;48197;42.732;27.192;2023-02-22T20:51:13;99840.22;;;6.20;74.18
62201;BME280;48197;42.732;27.192;2023-02-22T20:53:39;99830.78;;;6.18;74.17
62201;BME280;48197;42.732;27.192;2023-02-22T20:56:28;99833.03;;;6.08;74.63
62201;BME280;48197;42.732;27.192;2023-02-22T20:58:57;99829.31;;;5.97;75.55
62201;BME280;48197;42.732;27.192;2023-02-22T21:01:24;99833.16;;;5.92;76.42
62201;BME280;48197;42.732;27.192;2023-02-22T21:03:51;99832.22;;;5.81;76.85
62201;BME280;48197;42.732;27.192;2023-02-22T21:06:18;99831.38;;;5.77;78.00
62201;BME280;48197;42.732;27.192;2023-02-22T21:08:49;99831.78;;;5.79;77.95
62201;BME280;48197;42.732;27.192;2023-02-22T21:11:18;99817.22;;;5.75;78.03
62201;BME280;48197;42.732;27.192;2023-02-22T21:14:55;99818.16;;;5.86;78.24
62201;BME280;48197;42.732;27.192;2023-02-22T21:17:21;99821.47;;;5.96;78.04
62201;BME280;48197;42.732;27.192;2023-02-22T21:19:54;99828.31;;;6.09;77.59
62201;BME280;48197;42.732;27.192;2023-02-22T21:22:21;99819.09;;;6.24;77.20
62201;BME280;48197;42.732;27.192;2023-02-22T21:24:49;99833.47;;;6.44;75.69
62201;BME280;48197;42.732;27.192;2023-02-22T21:27:16;99827.84;;;6.64;74.55
62201;BME280;48197;42.732;27.192;2023-02-22T21:29:43;99822.81;;;6.73;74.41
62201;BME280;48197;42.732;27.192;2023-02-22T21:32:10;99830.31;;;6.76;74.10
62201;BME280;48197;42.732;27.192;2023-02-22T21:34:37;99823.69;;;6.81;74.16
62201;BME280;48197;42.732;27.192;2023-02-22T21:37:04;99817.84;;;6.86;74.05
62201;BME280;48197;42.732;27.192;2023-02-22T21:39:33;99820.66;;;6.93;74.16
62201;BME280;48197;42.732;27.192;2023-02-22T21:42:00;99816.47;;;7.03;73.44
62201;BME280;48197;42.732;27.192;2023-02-22T21:44:27;99816.88;;;7.05;73.31
62201;BME280;48197;42.732;27.192;2023-02-22T21:46:54;99814.13;;;7.05;73.17
62201;BME280;48197;42.732;27.192;2023-02-22T21:49:21;99816.81;;;7.01;73.19
62201;BME280;48197;42.732;27.192;2023-02-22T21:51:48;99824.34;;;7.08;73.23
62201;BME280;48197;42.732;27.192;2023-02-22T21:54:15;99826.78;;;7.13;73.06
62201;BME280;48197;42.732;27.192;2023-02-22T21:56:42;99828.38;;;7.18;72.60
62201;BME280;48197;42.732;27.192;2023-02-22T21:59:12;99822.53;;;7.23;72.80
62201;BME280;48197;42.732;27.192;2023-02-22T22:01:42;99818.22;;;7.25;72.26
62201;BME280;48197;42.732;27.192;2023-02-22T22:04:13;99817.09;;;7.30;71.87
62201;BME280;48197;42.732;27.192;2023-02-22T22:06:44;99820.19;;;7.25;72.02
62201;BME280;48197;42.732;27.192;2023-02-22T22:09:11;99818.22;;;7.25;72.03
62201;BME280;48197;42.732;27.192;2023-02-22T22:11:47;99816.69;;;7.28;72.42
62201;BME280;48197;42.732;27.192;2023-02-22T22:14:17;99808.81;;;7.26;72.38
62201;BME280;48197;42.732;27.192;2023-02-22T22:16:47;99824.53;;;7.29;71.99
62201;BME280;48197;42.732;27.192;2023-02-22T22:19:14;99823.34;;;7.27;71.79
62201;BME280;48197;42.732;27.192;2023-02-22T22:21:40;99821.38;;;7.24;71.96
62201;BME280;48197;42.732;27.192;2023-02-22T22:24:08;99820.88;;;7.14;73.06
62201;BME280;48197;42.732;27.192;2023-02-22T22:26:36;99823.16;;;7.05;73.50
62201;BME280;48197;42.732;27.192;2023-02-22T22:29:03;99828.22;;;7.03;73.95
62201;BME280;48197;42.732;27.192;2023-02-22T22:31:30;99825.84;;;7.02;74.35
62201;BME280;48197;42.732;27.192;2023-02-22T22:33:57;99827.03;;;7.01;74.70
62201;BME280;48197;42.732;27.192;2023-02-22T22:36:24;99830.50;;;6.94;74.76
62201;BME280;48197;42.732;27.192;2023-02-22T22:38:52;99833.56;;;6.89;75.40
62201;BME280;48197;42.732;27.192;2023-02-22T22:41:22;99830.88;;;6.92;75.98
62201;BME280;48197;42.732;27.192;2023-02-22T22:43:48;99831.66;;;6.93;76.46
62201;BME280;48197;42.732;27.192;2023-02-22T22:46:17;99824.59;;;6.92;76.59
62201;BME280;48197;42.732;27.192;2023-02-22T22:48:44;99826.22;;;6.97;76.50
62201;BME280;48197;42.732;27.192;2023-02-22T22:51:12;99830.16;;;6.99;76.93
62201;BME280;48197;42.732;27.192;2023-02-22T22:53:40;99829.41;;;7.02;77.25
62201;BME280;48197;42.732;27.192;2023-02-22T22:56:11;99830.19;;;7.03;77.27
62201;BME280;48197;42.732;27.192;2023-02-22T22:58:45;99829.78;;;7.01;77.66
62201;BME280;48197;42.732;27.192;2023-02-22T23:01:15;99825.47;;;7.03;77.95
62201;BME280;48197;42.732;27.192;2023-02-22T23:03:45;99826.66;;;7.02;77.37
62201;BME280;48197;42.732;27.192;2023-02-22T23:06:20;99827.03;;;7.01;77.40
62201;BME280;48197;42.732;27.192;2023-02-22T23:09:31;99835.22;;;6.93;78.20
62201;BME280;48197;42.732;27.192;2023-02-22T23:11:41;99834.72;;;6.84;78.78
62201;BME280;48197;42.732;27.192;2023-02-22T23:14:11;99826.06;;;6.82;79.94
62201;BME280;48197;42.732;27.192;2023-02-22T23:16:39;99821.75;;;6.81;80.09
62201;BME280;48197;42.732;27.192;2023-02-22T23:19:05;99824.06;;;6.79;80.67
62201;BME280;48197;42.732;27.192;2023-02-22T23:21:35;99822.53;;;6.82;80.87
62201;BME280;48197;42.732;27.192;2023-02-22T23:24:02;99832.78;;;6.88;80.86
62201;BME280;48197;42.732;27.192;2023-02-22T23:26:31;99823.34;;;6.86;80.97
62201;BME280;48197;42.732;27.192;2023-02-22T23:28:58;99819.84;;;6.89;81.12
62201;BME280;48197;42.732;27.192;2023-02-22T23:31:24;99821.44;;;6.90;81.14
62201;BME280;48197;42.732;27.192;2023-02-22T23:33:54;99824.91;;;6.83;81.50
62201;BME280;48197;42.732;27.192;2023-02-22T23:36:24;99819.78;;;6.82;82.00
62201;BME280;48197;42.732;27.192;2023-02-22T23:38:51;99819.38;;;6.80;81.90
62201;BME280;48197;42.732;27.192;2023-02-22T23:41:17;99829.56;;;6.79;82.57
62201;BME280;48197;42.732;27.192;2023-02-22T23:43:44;99826.03;;;6.79;83.70
62201;BME280;48197;42.732;27.192;2023-02-22T23:46:12;99817.84;;;6.86;83.63
62201;BME280;48197;42.732;27.192;2023-02-22T23:48:40;99821.84;;;6.92;83.62
62201;BME280;48197;42.732;27.192;2023-02-22T23:51:13;99821.81;;;6.88;83.48
62201;BME280;48197;42.732;27.192;2023-02-22T23:53:40;99819.44;;;6.87;84.50
62201;BME280;48197;42.732;27.192;2023-02-22T23:56:12;99823.41;;;6.89;84.99
62201;BME280;48197;42.732;27.192;2023-02-22T23:58:40;99821.47;;;6.93;85.91
